Time;durP1;ratioP1;P1;durP2;ratioP2;P2;SDS_P1;SDS_P2;PMS_P1;PMS_P2;Temp;Humidity;BMP_temperature;BMP_pressure;BME280_temperature;BME280_humidity;BME280_pressure;Samples;Min_cycle;Max_cycle;Signal;HPM_P1;HPM_P2
2021/03/09 00:02:01;;;;;;;19.80;11.63;;;5.20;99.90;;;;;;5091636;28;20094;-72
2021/03/09 00:04:26;;;;;;;27.50;12.38;;;5.30;99.90;;;;;;5096019;28;20202;-72
2021/03/09 00:06:52;;;;;;;23.50;11.07;;;5.20;99.90;;;;;;5095673;28;20024;-72
2021/03/09 00:09:17;;;;;;;22.90;13.25;;;5.20;99.90;;;;;;5095176;28;20024;-71
2021/03/09 00:11:43;;;;;;;25.15;12.27;;;5.20;99.90;;;;;;5095765;28;20032;-71
2021/03/09 00:14:09;;;;;;;26.83;12.80;;;5.20;99.90;;;;;;5099506;28;20020;-72
2021/03/09 00:16:34;;;;;;;26.70;13.75;;;5.20;99.90;;;;;;5110632;28;20386;-72
2021/03/09 00:19:00;;;;;;;26.63;14.77;;;5.20;99.90;;;;;;5115884;28;20020;-72
2021/03/09 00:21:25;;;;;;;26.92;12.70;;;5.20;99.90;;;;;;5116101;28;20019;-72
2021/03/09 00:23:51;;;;;;;25.67;13.57;;;5.20;99.90;;;;;;5115004;28;20031;-71
2021/03/09 00:26:16;;;;;;;25.92;13.80;;;5.20;99.90;;;;;;5116046;28;20024;-72
2021/03/09 00:28:42;;;;;;;29.42;14.68;;;5.20;99.90;;;;;;5116082;28;20015;-72
2021/03/09 00:31:07;;;;;;;26.45;13.82;;;5.20;99.90;;;;;;5115137;28;20020;-71
2021/03/09 00:33:33;;;;;;;30.23;15.13;;;5.20;99.90;;;;;;5115859;28;20099;-71
2021/03/09 00:35:58;;;;;;;28.77;14.73;;;5.20;99.90;;;;;;5114716;28;20031;-71
2021/03/09 00:38:24;;;;;;;30.23;14.77;;;5.20;99.90;;;;;;5115670;28;20027;-71
2021/03/09 00:40:50;;;;;;;32.63;15.40;;;5.20;99.90;;;;;;5115506;28;20019;-73
2021/03/09 00:43:15;;;;;;;34.17;15.82;;;5.20;99.90;;;;;;5115490;28;20042;-71
2021/03/09 00:45:41;;;;;;;35.63;16.38;;;5.20;99.90;;;;;;5115507;28;20463;-71
2021/03/09 00:48:06;;;;;;;33.10;16.35;;;5.20;99.90;;;;;;5115552;28;20032;-72
2021/03/09 00:50:32;;;;;;;34.95;16.75;;;5.20;99.90;;;;;;5100486;28;20027;-71
2021/03/09 00:52:58;;;;;;;31.20;14.48;;;5.20;99.90;;;;;;5105521;28;20515;-72
2021/03/09 00:55:24;;;;;;;39.15;17.77;;;5.20;99.90;;;;;;5109577;28;20106;-72
2021/03/09 00:57:57;;;;;;;37.58;18.55;;;5.20;99.90;;;;;;5101564;28;20605;-71
2021/03/09 01:00:23;;;;;;;33.92;17.52;;;5.20;99.90;;;;;;5097144;28;20024;-72
2021/03/09 01:02:49;;;;;;;33.20;17.17;;;5.20;99.90;;;;;;5094655;28;20095;-71
2021/03/09 01:05:15;;;;;;;30.35;16.00;;;5.20;99.90;;;;;;5095081;28;20065;-72
2021/03/09 01:07:40;;;;;;;42.22;19.27;;;5.30;99.90;;;;;;5112459;28;20043;-71
2021/03/09 01:10:06;;;;;;;35.05;17.95;;;5.20;99.90;;;;;;5120525;28;20028;-71
2021/03/09 01:12:32;;;;;;;35.60;18.42;;;5.10;99.90;;;;;;5116447;28;20034;-71
2021/03/09 01:14:57;;;;;;;37.65;18.05;;;5.20;99.90;;;;;;5113948;28;20383;-71
2021/03/09 01:17:23;;;;;;;36.20;16.63;;;5.20;99.90;;;;;;5117896;28;20020;-71
2021/03/09 01:19:48;;;;;;;38.90;18.40;;;5.20;99.90;;;;;;5116855;28;20035;-71
2021/03/09 01:22:14;;;;;;;38.53;17.98;;;5.20;99.90;;;;;;5115514;28;20116;-71
2021/03/09 01:24:39;;;;;;;36.50;16.15;;;5.20;99.90;;;;;;5114843;28;20020;-72
2021/03/09 01:27:05;;;;;;;32.80;16.73;;;5.10;99.90;;;;;;5114126;28;20027;-71
2021/03/09 01:29:31;;;;;;;38.78;18.02;;;5.20;99.90;;;;;;5102162;28;20028;-71
2021/03/09 01:31:56;;;;;;;40.22;18.73;;;5.10;99.90;;;;;;5108516;28;20051;-71
2021/03/09 01:34:22;;;;;;;36.47;17.30;;;5.10;99.90;;;;;;5093817;28;20570;-72
2021/03/09 01:36:48;;;;;;;39.17;18.38;;;5.20;99.90;;;;;;5094232;28;20472;-71
2021/03/09 01:39:14;;;;;;;37.20;19.08;;;5.10;99.90;;;;;;5093617;28;20020;-72
2021/03/09 01:41:42;;;;;;;39.25;18.35;;;5.10;99.90;;;;;;5094485;28;20035;-71
2021/03/09 01:44:07;;;;;;;37.90;19.17;;;5.10;99.90;;;;;;5093952;28;20124;-71
2021/03/09 01:46:34;;;;;;;33.15;18.02;;;5.10;99.90;;;;;;5093365;28;20131;-72
2021/03/09 01:48:59;;;;;;;39.13;19.13;;;5.10;99.90;;;;;;5093865;28;20056;-72
2021/03/09 01:51:25;;;;;;;42.72;19.27;;;5.20;99.90;;;;;;5094006;28;20404;-71
2021/03/09 01:53:51;;;;;;;40.03;18.30;;;5.20;99.90;;;;;;5092965;28;20468;-73
2021/03/09 01:56:16;;;;;;;40.55;18.33;;;5.20;99.90;;;;;;5108215;28;20023;-72
2021/03/09 01:58:48;;;;;;;38.85;18.50;;;5.20;99.90;;;;;;5094270;28;20035;-72
2021/03/09 02:01:15;;;;;;;34.42;18.40;;;5.10;99.90;;;;;;5093036;28;20027;-72
2021/03/09 02:03:40;;;;;;;37.90;18.88;;;5.20;99.90;;;;;;5094322;28;20127;-72
2021/03/09 02:06:06;;;;;;;37.88;19.70;;;5.10;99.90;;;;;;5093757;28;20080;-70
2021/03/09 02:08:33;;;;;;;39.50;19.65;;;5.10;99.90;;;;;;5093537;28;20030;-71
2021/03/09 02:10:58;;;;;;;39.63;19.17;;;5.20;99.90;;;;;;5093548;28;20027;-72
2021/03/09 02:13:38;;;;;;;41.88;20.15;;;5.20;99.90;;;;;;5093730;28;20024;-72
2021/03/09 02:16:35;;;;;;;42.22;19.67;;;5.10;99.90;;;;;;5092885;28;20497;-71
2021/03/09 02:19:51;;;;;;;40.35;18.63;;;5.10;99.90;;;;;;5092753;28;20107;-71
2021/03/09 02:22:43;;;;;;;41.00;20.38;;;5.10;99.90;;;;;;5019556;28;20552;-72
2021/03/09 02:25:20;;;;;;;41.42;19.23;;;5.10;99.90;;;;;;5109846;28;20031;-71
2021/03/09 02:28:05;;;;;;;40.55;20.73;;;5.20;99.90;;;;;;5113783;28;20471;-72
2021/03/09 02:30:33;;;;;;;42.03;21.05;;;5.20;99.90;;;;;;5113042;28;20015;-71
2021/03/09 02:33:17;;;;;;;37.85;19.40;;;5.20;99.90;;;;;;5113424;28;20092;-71
2021/03/09 02:35:57;;;;;;;42.75;19.85;;;5.20;99.90;;;;;;5092723;28;20024;-71
2021/03/09 02:38:25;;;;;;;45.67;21.20;;;5.20;99.90;;;;;;5093174;28;20033;-71
2021/03/09 02:40:55;;;;;;;41.67;20.45;;;5.10;99.90;;;;;;5093530;28;20032;-72
2021/03/09 02:43:23;;;;;;;39.60;20.50;;;5.20;99.90;;;;;;5096737;28;20036;-72
2021/03/09 02:45:51;;;;;;;42.33;22.00;;;5.20;99.90;;;;;;5092426;28;20031;-71
2021/03/09 02:48:21;;;;;;;46.63;22.88;;;5.20;99.90;;;;;;5092701;28;20023;-71
2021/03/09 02:50:49;;;;;;;48.75;23.73;;;5.20;99.90;;;;;;5092194;28;20020;-72
2021/03/09 02:53:15;;;;;;;48.13;22.50;;;5.10;99.90;;;;;;5093059;28;20106;-72
2021/03/09 02:55:42;;;;;;;46.88;21.25;;;5.20;99.90;;;;;;5107313;28;20024;-72
2021/03/09 02:58:18;;;;;;;40.90;20.95;;;5.10;99.90;;;;;;5093781;28;20398;-72
2021/03/09 03:00:44;;;;;;;42.97;20.70;;;5.50;99.90;;;;;;5093349;28;20035;-72
2021/03/09 03:03:13;;;;;;;48.25;23.17;;;5.20;99.90;;;;;;5112222;28;20040;-70
2021/03/09 03:05:39;;;;;;;45.85;23.35;;;5.10;99.90;;;;;;5113272;28;20047;-71
2021/03/09 03:08:08;;;;;;;52.50;22.55;;;5.10;99.90;;;;;;5114343;27;20023;-71
2021/03/09 03:10:36;;;;;;;47.83;22.35;;;5.20;99.90;;;;;;5117260;28;20020;-71
2021/03/09 03:13:06;;;;;;;44.75;21.98;;;5.10;99.90;;;;;;5121730;28;20042;-71
2021/03/09 03:15:33;;;;;;;48.08;23.33;;;5.10;99.90;;;;;;5114102;28;20035;-71
2021/03/09 03:18:00;;;;;;;46.47;20.52;;;5.10;99.90;;;;;;5111796;28;20181;-71
2021/03/09 03:20:26;;;;;;;52.13;23.25;;;5.20;99.90;;;;;;5112744;28;20024;-71
2021/03/09 03:22:54;;;;;;;51.53;23.10;;;5.20;99.90;;;;;;5112502;28;20072;-71
2021/03/09 03:25:21;;;;;;;53.08;23.70;;;5.20;99.90;;;;;;5107136;28;20482;-71
2021/03/09 03:27:48;;;;;;;48.47;23.75;;;5.20;99.90;;;;;;5112713;28;20081;-71
2021/03/09 03:30:16;;;;;;;56.85;25.95;;;5.20;99.90;;;;;;5108805;28;20364;-71
2021/03/09 03:32:42;;;;;;;51.97;25.30;;;5.20;99.90;;;;;;5092476;28;20089;-71
2021/03/09 03:35:10;;;;;;;50.97;24.55;;;5.20;99.90;;;;;;5106173;28;20703;-71
2021/03/09 03:37:37;;;;;;;52.45;25.17;;;5.20;99.90;;;;;;5091553;28;20032;-71
2021/03/09 03:40:06;;;;;;;60.03;25.15;;;5.20;99.90;;;;;;5091104;28;20069;-72
2021/03/09 03:42:32;;;;;;;55.35;25.92;;;5.20;99.90;;;;;;5100544;28;20024;-71
2021/03/09 03:44:58;;;;;;;55.45;25.25;;;5.20;99.90;;;;;;5097455;28;20024;-71
2021/03/09 03:47:24;;;;;;;55.97;27.67;;;5.20;99.90;;;;;;5091570;28;20030;-71
2021/03/09 03:49:49;;;;;;;55.78;27.95;;;5.20;99.90;;;;;;5091579;28;20028;-72
2021/03/09 03:52:27;;;;;;;57.38;25.75;;;5.20;99.90;;;;;;5091812;28;20468;-72
2021/03/09 03:55:05;;;;;;;59.22;27.15;;;5.20;99.90;;;;;;5091131;28;20480;-72
2021/03/09 03:57:36;;;;;;;53.42;27.27;;;5.30;99.90;;;;;;5092059;28;20020;-72
2021/03/09 04:00:04;;;;;;;60.58;27.77;;;5.20;99.90;;;;;;5103300;28;20459;-72
2021/03/09 04:02:31;;;;;;;58.05;27.52;;;5.30;99.90;;;;;;5093265;28;20052;-72
2021/03/09 04:04:56;;;;;;;55.75;28.58;;;5.30;99.90;;;;;;5091663;28;20103;-72
2021/03/09 04:07:27;;;;;;;67.80;30.17;;;5.30;99.90;;;;;;5091170;28;20115;-73
2021/03/09 04:09:55;;;;;;;62.53;28.20;;;5.20;99.90;;;;;;5091693;28;20499;-73
2021/03/09 04:12:24;;;;;;;57.25;28.58;;;5.30;99.90;;;;;;5092070;28;20028;-72
2021/03/09 04:14:49;;;;;;;61.85;28.77;;;5.30;99.90;;;;;;5091118;28;20034;-72
2021/03/09 04:17:18;;;;;;;68.25;29.88;;;5.30;99.90;;;;;;5092036;28;20106;-72
2021/03/09 04:19:45;;;;;;;69.95;30.85;;;5.30;99.90;;;;;;5098427;28;20540;-72
2021/03/09 04:22:12;;;;;;;58.88;28.92;;;5.30;99.90;;;;;;5111521;28;20054;-73
2021/03/09 04:24:39;;;;;;;68.70;30.45;;;5.30;99.90;;;;;;5093077;28;20475;-71
2021/03/09 04:27:05;;;;;;;71.22;31.15;;;5.30;99.90;;;;;;5091713;28;20031;-71
2021/03/09 04:29:31;;;;;;;59.28;30.17;;;5.30;99.90;;;;;;5094885;28;20035;-73
2021/03/09 04:31:56;;;;;;;54.13;27.13;;;5.30;99.90;;;;;;5112738;28;20032;-71
2021/03/09 04:34:22;;;;;;;61.72;28.85;;;5.40;99.90;;;;;;5098085;28;20039;-71
2021/03/09 04:36:48;;;;;;;62.78;31.92;;;5.40;99.90;;;;;;5111293;28;20038;-71
2021/03/09 04:39:14;;;;;;;61.10;30.25;;;5.30;99.90;;;;;;5110523;28;20028;-71
2021/03/09 04:41:40;;;;;;;60.47;28.25;;;5.30;99.90;;;;;;5092354;28;20040;-72
2021/03/09 04:44:05;;;;;;;69.13;32.42;;;5.40;99.90;;;;;;5091501;28;20073;-72
2021/03/09 04:46:31;;;;;;;69.95;32.15;;;5.40;99.90;;;;;;5092134;28;20089;-72
2021/03/09 04:48:57;;;;;;;67.38;31.58;;;5.40;99.90;;;;;;5094277;28;20076;-72
2021/03/09 04:51:23;;;;;;;71.93;33.10;;;5.40;99.90;;;;;;5095313;28;20077;-72
2021/03/09 04:53:50;;;;;;;71.55;33.92;;;5.40;99.90;;;;;;5114210;28;20093;-71
2021/03/09 04:56:16;;;;;;;71.05;32.65;;;5.40;99.90;;;;;;5118430;28;20049;-72
2021/03/09 04:58:42;;;;;;;74.55;34.95;;;5.40;99.90;;;;;;5117515;28;20356;-72
2021/03/09 05:01:07;;;;;;;75.65;35.88;;;5.40;99.90;;;;;;5115341;28;20019;-72
2021/03/09 05:03:34;;;;;;;76.78;34.70;;;5.50;99.90;;;;;;5114515;28;20066;-72
2021/03/09 05:06:00;;;;;;;79.72;34.17;;;5.50;99.90;;;;;;5116585;28;20032;-71
2021/03/09 05:08:26;;;;;;;81.70;36.67;;;5.50;99.90;;;;;;5116003;28;20027;-72
2021/03/09 05:10:52;;;;;;;78.90;35.05;;;5.50;99.90;;;;;;5115560;28;20031;-72
2021/03/09 05:13:18;;;;;;;79.97;32.85;;;5.50;99.90;;;;;;5115847;28;20034;-71
2021/03/09 05:15:44;;;;;;;75.90;35.13;;;5.60;99.90;;;;;;5115001;28;20359;-71
2021/03/09 05:18:10;;;;;;;79.60;37.05;;;5.50;99.90;;;;;;5114516;28;20023;-71
2021/03/09 05:20:36;;;;;;;75.97;35.35;;;5.70;99.90;;;;;;5112866;27;20019;-71
2021/03/09 05:23:02;;;;;;;78.47;34.42;;;5.70;99.90;;;;;;5094469;28;20085;-72
2021/03/09 05:25:28;;;;;;;81.00;35.10;;;5.70;99.90;;;;;;5094048;28;20032;-71
2021/03/09 05:27:53;;;;;;;75.82;35.22;;;5.80;99.90;;;;;;5094500;28;20073;-71
2021/03/09 05:30:21;;;;;;;86.03;35.90;;;5.80;99.90;;;;;;5094560;28;20030;-71
2021/03/09 05:32:47;;;;;;;81.88;36.17;;;5.80;99.90;;;;;;5096736;28;20079;-72
2021/03/09 05:35:14;;;;;;;75.82;34.22;;;5.80;99.90;;;;;;5109869;28;20032;-72
2021/03/09 05:37:40;;;;;;;89.05;37.17;;;5.80;99.90;;;;;;5095249;28;20028;-72
2021/03/09 05:40:07;;;;;;;71.53;33.67;;;5.80;99.90;;;;;;5093822;28;20019;-72
2021/03/09 05:42:36;;;;;;;73.70;35.10;;;5.90;99.90;;;;;;5106036;28;20040;-71
2021/03/09 05:45:03;;;;;;;72.38;32.80;;;5.90;99.90;;;;;;5114186;28;20015;-71
2021/03/09 05:47:30;;;;;;;77.57;33.45;;;5.90;99.90;;;;;;5113953;28;20016;-71
2021/03/09 05:49:57;;;;;;;71.93;33.78;;;5.90;99.90;;;;;;5114110;28;20140;-71
2021/03/09 05:52:24;;;;;;;75.03;34.22;;;5.90;99.90;;;;;;5114349;28;20024;-72
2021/03/09 05:54:49;;;;;;;69.57;31.95;;;6.00;99.90;;;;;;5114167;28;20498;-71
2021/03/09 05:57:15;;;;;;;60.53;27.65;;;6.00;99.90;;;;;;5114619;28;20019;-71
2021/03/09 05:59:41;;;;;;;61.83;25.55;;;6.00;99.90;;;;;;5112912;28;20493;-72
2021/03/09 06:02:07;;;;;;;50.33;23.52;;;6.00;99.90;;;;;;5113765;28;20054;-72
2021/03/09 06:04:34;;;;;;;33.42;15.95;;;6.00;99.90;;;;;;5113005;28;20016;-71
2021/03/09 06:07:00;;;;;;;38.15;14.10;;;6.00;99.90;;;;;;5112923;28;20387;-71
2021/03/09 06:09:40;;;;;;;30.08;12.18;;;6.00;99.90;;;;;;5114067;28;20026;-71
2021/03/09 06:12:12;;;;;;;20.77;10.87;;;6.00;99.90;;;;;;5113416;28;20027;-72
2021/03/09 06:14:56;;;;;;;23.50;10.82;;;5.90;99.90;;;;;;5113632;28;20258;-72
2021/03/09 06:17:55;;;;;;;21.30;10.02;;;5.90;99.90;;;;;;5099374;28;20062;-72
2021/03/09 06:20:28;;;;;;;23.30;9.95;;;5.90;99.90;;;;;;5100661;28;20032;-71
2021/03/09 06:22:59;;;;;;;27.83;10.90;;;5.90;99.90;;;;;;5112783;28;20042;-71
2021/03/09 06:25:29;;;;;;;24.75;12.63;;;5.90;99.90;;;;;;5114088;28;20020;-71
2021/03/09 06:28:04;;;;;;;23.15;10.90;;;5.90;99.90;;;;;;5112785;28;20051;-71
2021/03/09 06:30:34;;;;;;;28.05;10.75;;;5.90;99.90;;;;;;5113704;28;20020;-72
2021/03/09 06:33:01;;;;;;;18.95;10.48;;;5.80;99.90;;;;;;5113284;28;20035;-70
2021/03/09 06:35:42;;;;;;;24.25;10.18;;;5.80;99.90;;;;;;5104284;28;20051;-71
2021/03/09 06:38:27;;;;;;;22.65;10.02;;;5.80;99.90;;;;;;5093025;28;20061;-71
2021/03/09 06:41:16;;;;;;;19.23;9.57;;;5.80;99.90;;;;;;5092768;28;20042;-71
2021/03/09 06:43:59;;;;;;;26.77;8.77;;;5.90;99.90;;;;;;5099294;28;20076;-71
2021/03/09 06:46:25;;;;;;;19.20;8.88;;;5.80;99.90;;;;;;5113203;28;20028;-71
2021/03/09 06:49:02;;;;;;;19.90;7.80;;;5.90;99.90;;;;;;5112301;28;20479;-71
2021/03/09 06:51:33;;;;;;;16.88;9.73;;;5.80;99.90;;;;;;5113222;28;20110;-72
2021/03/09 06:54:07;;;;;;;14.32;6.32;;;5.90;99.90;;;;;;5113212;28;20386;-71
2021/03/09 06:56:43;;;;;;;16.77;6.88;;;5.90;99.90;;;;;;5115708;28;20045;-69
2021/03/09 06:59:25;;;;;;;17.15;6.07;;;5.90;99.90;;;;;;5113076;28;20038;-72
2021/03/09 07:02:11;;;;;;;10.02;5.65;;;5.90;99.90;;;;;;5109647;28;20430;-73
2021/03/09 07:04:39;;;;;;;14.30;6.38;;;5.90;99.90;;;;;;5106689;28;20525;-72
2021/03/09 07:07:06;;;;;;;15.63;5.75;;;6.00;99.90;;;;;;5110368;28;20035;-72
2021/03/09 07:09:32;;;;;;;20.98;6.22;;;6.00;99.90;;;;;;5109412;28;20035;-72
2021/03/09 07:12:01;;;;;;;13.93;5.45;;;6.00;99.90;;;;;;5110002;28;20028;-71
2021/03/09 07:14:32;;;;;;;12.23;5.03;;;6.00;99.90;;;;;;5108899;28;20023;-71
2021/03/09 07:16:59;;;;;;;;;;;6.10;99.90;;;;;;5110786;28;20020;-71
2021/03/09 07:19:42;;;;;;;9.18;4.75;;;6.00;99.90;;;;;;5105170;28;19998;-72
2021/03/09 07:22:10;;;;;;;14.45;3.92;;;6.10;99.90;;;;;;5105169;28;20039;-72
2021/03/09 07:24:42;;;;;;;10.50;3.88;;;6.10;99.90;;;;;;5111464;28;20011;-72
2021/03/09 07:27:11;;;;;;;7.18;3.60;;;6.10;99.90;;;;;;5108857;28;20031;-71
2021/03/09 07:29:42;;;;;;;5.57;3.78;;;6.10;99.90;;;;;;5100826;28;20020;-72
2021/03/09 07:32:09;;;;;;;4.93;3.03;;;6.10;99.90;;;;;;5102646;28;20479;-71
2021/03/09 07:34:35;;;;;;;11.30;2.90;;;6.10;99.90;;;;;;5093988;28;20036;-70
2021/03/09 07:37:01;;;;;;;5.28;2.80;;;6.10;99.90;;;;;;5090909;28;20016;-75
2021/03/09 07:39:28;;;;;;;13.18;2.53;;;6.10;99.90;;;;;;5090151;28;20052;-74
2021/03/09 07:41:55;;;;;;;8.48;2.58;;;6.10;99.90;;;;;;5090238;28;20028;-74
2021/03/09 07:44:21;;;;;;;11.27;3.33;;;6.20;99.90;;;;;;5090877;28;20047;-74
2021/03/09 07:46:48;;;;;;;8.35;2.92;;;6.20;99.90;;;;;;5095643;28;20054;-76
2021/03/09 07:49:14;;;;;;;10.02;3.17;;;6.20;99.90;;;;;;5094963;28;20028;-75
2021/03/09 07:52:08;;;;;;;10.68;3.88;;;6.20;99.90;;;;;;5098237;28;20087;-75
2021/03/09 07:54:37;;;;;;;9.50;3.40;;;6.30;99.90;;;;;;5097810;28;20027;-75
2021/03/09 07:57:22;;;;;;;12.60;3.45;;;6.40;99.90;;;;;;5090936;28;20028;-75
2021/03/09 08:00:05;;;;;;;9.55;3.97;;;6.40;99.90;;;;;;5091202;28;20040;-75
2021/03/09 08:02:40;;;;;;;6.05;3.38;;;6.50;99.90;;;;;;5091424;28;20052;-75
2021/03/09 08:05:14;;;;;;;7.25;2.70;;;6.60;99.90;;;;;;5095781;28;20020;-75
2021/03/09 08:07:53;;;;;;;5.25;2.40;;;6.60;99.90;;;;;;5093404;28;20024;-76
2021/03/09 08:10:38;;;;;;;10.50;3.47;;;6.70;99.90;;;;;;5091013;28;20071;-76
2021/03/09 08:13:07;;;;;;;11.00;2.80;;;6.70;99.90;;;;;;5101378;28;20035;-76
2021/03/09 08:15:37;;;;;;;7.13;2.47;;;6.80;99.90;;;;;;5102475;28;20016;-74
2021/03/09 08:18:21;;;;;;;4.95;2.05;;;6.80;99.90;;;;;;5096908;28;20024;-77
2021/03/09 08:20:53;;;;;;;5.75;2.10;;;6.90;99.90;;;;;;5093707;28;20017;-76
2021/03/09 08:23:34;;;;;;;7.97;2.63;;;6.90;99.90;;;;;;5102368;28;20032;-78
2021/03/09 08:26:03;;;;;;;;;;;7.00;99.90;;;;;;5113585;28;20024;-76
2021/03/09 08:28:34;;;;;;;8.60;2.55;;;7.10;99.90;;;;;;5114278;28;19948;-78
2021/03/09 08:31:12;;;;;;;2.75;2.30;;;7.10;99.90;;;;;;5111848;28;20020;-76
2021/03/09 08:33:42;;;;;;;2.75;1.88;;;7.20;99.90;;;;;;5103994;28;20498;-78
2021/03/09 08:36:19;;;;;;;5.75;2.10;;;7.20;99.90;;;;;;5107758;28;20035;-76
2021/03/09 08:39:01;;;;;;;17.48;3.28;;;7.30;99.90;;;;;;5101606;28;20024;-75
2021/03/09 08:41:27;;;;;;;5.07;2.33;;;7.30;99.90;;;;;;5102067;28;20053;-77
2021/03/09 08:47:19;;;;;;;6.13;2.03;;;7.30;99.90;;;;;;5095433;28;20050;-78
2021/03/09 08:49:45;;;;;;;7.40;2.33;;;7.30;99.90;;;;;;5023842;28;20018;-76
2021/03/09 08:52:17;;;;;;;7.20;2.50;;;7.40;99.90;;;;;;5032398;28;20547;-76
2021/03/09 08:54:53;;;;;;;6.80;2.47;;;7.40;99.90;;;;;;5072839;28;20027;-76
2021/03/09 08:57:18;;;;;;;4.72;2.38;;;7.40;99.90;;;;;;5103746;28;20028;-76
2021/03/09 08:59:46;;;;;;;3.90;2.20;;;7.40;99.90;;;;;;5109859;28;20030;-77
2021/03/09 09:02:21;;;;;;;4.38;1.90;;;7.50;99.90;;;;;;5103879;28;20348;-75
2021/03/09 09:04:55;;;;;;;5.38;1.95;;;7.60;99.90;;;;;;5101432;28;20490;-75
2021/03/09 09:07:42;;;;;;;6.13;2.95;;;7.50;99.90;;;;;;5103899;28;20375;-71
2021/03/09 09:10:08;;;;;;;11.85;2.40;;;7.60;99.90;;;;;;5101979;28;20044;-77
2021/03/09 09:12:34;;;;;;;2.75;1.70;;;7.60;99.90;;;;;;5104039;28;20478;-78
2021/03/09 09:15:08;;;;;;;5.05;1.75;;;7.60;99.90;;;;;;5108230;28;20498;-78
2021/03/09 09:17:34;;;;;;;4.18;1.85;;;7.70;99.90;;;;;;5094625;28;20024;-78
2021/03/09 09:20:03;;;;;;;6.60;2.70;;;7.70;99.90;;;;;;5102624;28;20024;-76
2021/03/09 09:22:29;;;;;;;2.08;1.67;;;7.70;99.90;;;;;;5097880;28;20115;-76
2021/03/09 09:24:56;;;;;;;2.75;1.40;;;7.70;99.90;;;;;;5098664;28;20206;-76
2021/03/09 09:27:22;;;;;;;5.07;1.02;;;7.70;99.90;;;;;;5099843;28;20027;-75
2021/03/09 09:29:55;;;;;;;2.58;1.00;;;7.60;99.90;;;;;;5094403;28;20452;-76
2021/03/09 09:32:22;;;;;;;2.55;1.05;;;7.60;99.90;;;;;;5093508;28;20024;-76
2021/03/09 09:34:56;;;;;;;4.35;1.10;;;7.50;99.90;;;;;;5095038;28;20028;-75
2021/03/09 09:37:22;;;;;;;3.60;0.98;;;7.50;99.90;;;;;;5098046;28;20349;-75
2021/03/09 09:39:48;;;;;;;4.05;0.77;;;7.70;99.90;;;;;;5096898;28;20035;-76
2021/03/09 09:42:16;;;;;;;5.60;1.30;;;7.80;99.90;;;;;;5093234;28;20035;-77
2021/03/09 09:44:42;;;;;;;2.35;1.25;;;7.80;99.90;;;;;;5108969;28;20043;-76
2021/03/09 09:47:10;;;;;;;2.58;1.05;;;7.70;99.90;;;;;;5102537;28;20027;-75
2021/03/09 09:49:37;;;;;;;2.63;0.70;;;7.80;99.90;;;;;;5102027;28;20093;-75
2021/03/09 09:52:11;;;;;;;5.93;0.75;;;7.80;99.90;;;;;;5095668;28;20028;-75
2021/03/09 09:54:37;;;;;;;3.45;0.60;;;7.70;99.90;;;;;;5104710;28;20055;-76
2021/03/09 09:57:09;;;;;;;1.15;0.63;;;7.60;99.90;;;;;;5099890;28;20475;-76
2021/03/09 09:59:35;;;;;;;2.22;0.43;;;7.40;99.90;;;;;;5097822;28;20119;-76
2021/03/09 10:02:23;;;;;;;2.15;1.45;;;7.30;99.90;;;;;;5093184;28;20546;-79
2021/03/09 10:04:49;;;;;;;3.10;0.98;;;7.20;99.90;;;;;;5094647;28;20110;-78
2021/03/09 10:07:25;;;;;;;3.30;0.80;;;7.10;99.90;;;;;;5096112;28;20028;-77
2021/03/09 10:10:10;;;;;;;0.95;0.68;;;7.00;99.90;;;;;;5092631;28;20031;-78
2021/03/09 10:12:39;;;;;;;7.00;0.98;;;7.00;99.90;;;;;;5099478;28;20119;-77
2021/03/09 10:15:07;;;;;;;2.53;0.50;;;7.10;99.90;;;;;;5103644;28;20027;-77
2021/03/09 10:17:33;;;;;;;2.63;0.65;;;7.30;99.90;;;;;;5106164;28;20421;-77
2021/03/09 10:19:59;;;;;;;3.50;0.77;;;7.40;99.90;;;;;;5101263;28;20493;-77
2021/03/09 10:22:26;;;;;;;0.38;0.35;;;7.60;99.90;;;;;;5098842;28;20044;-77
2021/03/09 10:24:52;;;;;;;1.63;0.85;;;7.60;99.90;;;;;;5102151;28;20020;-76
2021/03/09 10:27:25;;;;;;;3.40;0.60;;;7.70;99.90;;;;;;5098441;28;20085;-78
2021/03/09 10:29:57;;;;;;;1.83;0.57;;;7.70;99.90;;;;;;5099424;28;20107;-78
2021/03/09 10:32:23;;;;;;;0.47;0.40;;;7.60;99.90;;;;;;5101190;28;20030;-77
2021/03/09 10:34:54;;;;;;;3.13;0.50;;;7.70;99.90;;;;;;5095327;28;20035;-77
2021/03/09 10:37:36;;;;;;;1.20;0.40;;;7.60;99.90;;;;;;5096595;28;20032;-78
2021/03/09 10:40:08;;;;;;;0.30;0.30;;;7.70;99.90;;;;;;5108315;28;20019;-78
2021/03/09 10:42:39;;;;;;;0.30;0.30;;;7.70;99.90;;;;;;5101087;28;20035;-77
2021/03/09 10:45:24;;;;;;;0.20;0.20;;;7.70;99.90;;;;;;5102849;28;20023;-78
2021/03/09 10:48:00;;;;;;;1.88;0.30;;;7.90;99.90;;;;;;5103356;28;20067;-75
2021/03/09 10:50:38;;;;;;;3.15;0.40;;;7.80;99.90;;;;;;5105131;28;20439;-76
2021/03/09 10:53:03;;;;;;;2.08;0.50;;;7.90;99.90;;;;;;5098609;28;20032;-75
2021/03/09 10:55:29;;;;;;;0.60;0.20;;;7.80;99.90;;;;;;5100634;28;20024;-76
2021/03/09 10:57:54;;;;;;;1.98;0.43;;;7.80;99.90;;;;;;5102655;28;20046;-74
2021/03/09 11:00:22;;;;;;;2.90;0.30;;;7.60;99.90;;;;;;5105605;28;20022;-74
2021/03/09 11:02:48;;;;;;;3.80;0.30;;;7.80;99.90;;;;;;5101332;28;20051;-73
2021/03/09 11:05:14;;;;;;;2.42;0.30;;;8.40;99.90;;;;;;5098256;28;20024;-74
2021/03/09 11:07:39;;;;;;;0.50;0.20;;;7.80;99.90;;;;;;5100129;28;20024;-73
2021/03/09 11:10:07;;;;;;;0.85;0.45;;;7.80;99.90;;;;;;5092219;28;20030;-75
2021/03/09 11:12:33;;;;;;;6.45;1.10;;;8.00;99.90;;;;;;5105677;28;20479;-75
2021/03/09 11:14:58;;;;;;;0.32;0.30;;;8.00;99.90;;;;;;5098421;28;20023;-75
2021/03/09 11:17:24;;;;;;;3.60;0.40;;;8.10;99.90;;;;;;5099291;28;20588;-75
2021/03/09 11:19:50;;;;;;;2.10;0.30;;;8.00;99.90;;;;;;5095987;28;20012;-75
2021/03/09 11:22:16;;;;;;;1.30;0.43;;;8.00;99.90;;;;;;5101618;28;20371;-75
2021/03/09 11:24:42;;;;;;;1.83;0.20;;;8.20;99.90;;;;;;5099317;28;20106;-76
2021/03/09 11:27:09;;;;;;;0.25;0.20;;;7.70;99.90;;;;;;5100933;28;20379;-75
2021/03/09 11:29:35;;;;;;;0.13;0.10;;;7.60;99.90;;;;;;5102011;28;20023;-75
2021/03/09 11:32:02;;;;;;;0.40;0.20;;;7.70;99.90;;;;;;5105493;28;20043;-74
2021/03/09 11:34:27;;;;;;;0.85;0.47;;;7.80;99.90;;;;;;5098305;28;20028;-75
2021/03/09 11:36:54;;;;;;;0.25;0.20;;;7.90;99.90;;;;;;5095741;28;20473;-76
2021/03/09 11:39:20;;;;;;;1.00;0.30;;;7.90;99.90;;;;;;5102950;28;20046;-75
2021/03/09 11:41:48;;;;;;;0.52;0.40;;;8.00;99.90;;;;;;5102199;28;20032;-75
2021/03/09 11:44:15;;;;;;;1.58;0.40;;;7.90;99.90;;;;;;5099958;28;20085;-75
2021/03/09 11:46:41;;;;;;;0.32;0.30;;;7.80;99.90;;;;;;5102190;28;20126;-75
2021/03/09 11:49:07;;;;;;;0.43;0.32;;;7.70;99.90;;;;;;5098870;28;20048;-75
2021/03/09 11:51:32;;;;;;;3.15;0.50;;;7.60;99.90;;;;;;5099394;28;20043;-75
2021/03/09 11:53:58;;;;;;;0.77;0.32;;;7.40;99.90;;;;;;5099819;28;20030;-75
2021/03/09 11:56:23;;;;;;;1.13;0.30;;;7.20;99.90;;;;;;5104459;28;20028;-75
2021/03/09 11:58:49;;;;;;;0.40;0.40;;;7.10;99.90;;;;;;5102903;28;20027;-75
2021/03/09 12:01:15;;;;;;;1.40;0.50;;;7.00;99.90;;;;;;5101661;28;20389;-76
2021/03/09 12:03:41;;;;;;;1.95;0.50;;;7.10;99.90;;;;;;5106882;28;20076;-75
2021/03/09 12:06:06;;;;;;;0.70;0.40;;;7.20;99.90;;;;;;5100780;28;20016;-75
2021/03/09 12:08:32;;;;;;;1.60;0.35;;;7.30;99.90;;;;;;5102498;28;20027;-75
2021/03/09 12:10:58;;;;;;;3.45;0.40;;;7.40;99.90;;;;;;5101754;28;20592;-76
2021/03/09 12:13:23;;;;;;;0.63;0.60;;;7.50;99.90;;;;;;5102019;28;20028;-76
2021/03/09 12:15:49;;;;;;;1.00;0.35;;;7.70;99.90;;;;;;5105623;28;20028;-75
2021/03/09 12:18:14;;;;;;;1.95;0.40;;;7.80;99.90;;;;;;5109089;28;20072;-76
2021/03/09 12:20:40;;;;;;;0.52;0.30;;;7.90;99.90;;;;;;5104806;28;20117;-76
2021/03/09 12:23:06;;;;;;;1.85;0.20;;;8.00;99.90;;;;;;5106368;28;20031;-75
2021/03/09 12:25:32;;;;;;;2.22;0.30;;;8.10;99.90;;;;;;5106933;28;20023;-75
2021/03/09 12:27:57;;;;;;;0.60;0.30;;;8.10;99.90;;;;;;5110165;28;20085;-74
2021/03/09 12:30:24;;;;;;;0.70;0.40;;;8.20;99.90;;;;;;5108975;28;20031;-75
2021/03/09 12:32:50;;;;;;;4.45;0.60;;;8.20;99.90;;;;;;5104720;28;20035;-75
2021/03/09 12:35:16;;;;;;;0.32;0.32;;;8.20;99.90;;;;;;5107968;28;20422;-76
2021/03/09 12:37:45;;;;;;;1.20;0.68;;;8.10;99.90;;;;;;5104621;28;20020;-76
2021/03/09 12:40:11;;;;;;;3.30;0.45;;;8.10;99.90;;;;;;5109748;28;20015;-75
2021/03/09 12:42:36;;;;;;;1.25;0.35;;;8.00;99.90;;;;;;5110167;28;20032;-77
2021/03/09 12:45:06;;;;;;;0.47;0.40;;;8.10;99.90;;;;;;5096093;28;20491;-75
2021/03/09 12:47:32;;;;;;;0.43;0.32;;;8.10;99.90;;;;;;5111166;28;20479;-76
2021/03/09 12:49:58;;;;;;;1.45;0.57;;;8.10;99.90;;;;;;5107923;28;20023;-75
2021/03/09 12:52:24;;;;;;;3.95;0.73;;;8.00;99.90;;;;;;5104884;28;20391;-76
2021/03/09 12:54:49;;;;;;;0.70;0.40;;;8.10;99.90;;;;;;5106635;28;20027;-76
2021/03/09 12:57:15;;;;;;;0.63;0.40;;;8.10;99.90;;;;;;5100514;28;20485;-75
2021/03/09 12:59:41;;;;;;;2.42;0.63;;;8.10;99.90;;;;;;5102931;28;20021;-76